Latest Coastal Weather Observations for Nullarbor

IDS60701

Issued at 4:11 pm CST Tuesday 21 April 2015 (issued every 10 minutes, with the page automatically refreshed every 10 minutes)

About coastal observations | Map of coastal stations | Coastal observations for SA | Marine services | Other Formats
Station Details ID: 018106 Name: NULLARBOR Lat: -31.45 Lon: 130.90 Height: 64.0 m
Data from the previous 72 hours. | See also: Recent months at Nullarbor
Date/Time
CST
Temp

°C
Wind Pressure Rain
since 9am
mm
Weather Cloud Vis
km
Sea
Height
m
Swell
Dir
 
Speed
knots
Gust
knots
hPa Trend Height
m
Period
s
Dir
21/04:00pm 19.0 SE 12 15 1026.9 - 0.0 - - 10 - - - -
21/03:30pm 19.9 ESE 10 14 1027.3 - 0.0 - - 10 - - - -
21/03:00pm 20.1 ENE 10 16 1027.5 - 0.0 - - 10 - - - -
21/02:30pm 19.4 NE 10 16 1027.8 - 0.0 - - 10 - - - -
21/02:00pm 18.8 ENE 11 16 1028.3 - 0.0 - - 10 - - - -
21/01:30pm 19.1 NE 12 19 1028.8 - 0.0 - - 10 - - - -
21/01:00pm 18.9 NE 10 14 1029.5 - 0.0 - - 10 - - - -
21/12:30pm 18.2 ENE 11 17 1030.3 - 0.0 - - 10 - - - -
21/12:00pm 17.8 NE 12 15 1030.8 - 0.0 - - 10 - - - -
21/11:30am 17.1 NE 12 15 1031.2 - 0.0 - - 10 - - - -
21/11:00am 16.3 NE 13 16 1031.5 - 0.0 - - 10 - - - -
21/10:30am 15.5 NE 14 17 1031.8 - 0.0 - - - - - - -
21/10:00am 14.7 NE 15 18 1032.1 - 0.0 - - - - - - -
21/09:30am 13.9 NE 15 20 1032.4 - 0.0 - - - - - - -
21/09:00am 12.5 ENE 15 19 1032.4 - 0.0 - - - - - - -
21/08:30am 11.0 ENE 12 16 1032.4 - 0.0 - - - - - - -
21/08:00am 9.0 ENE 11 14 1032.3 - 0.0 - - - - - - -
21/07:30am 7.3 ENE 11 12 1032.3 - 0.0 - - - - - - -
21/07:00am 6.7 ENE 10 11 1032.4 - 0.0 - - - - - - -
21/06:30am 6.6 ENE 10 12 1032.4 - 0.0 - - - - - - -
21/06:00am 6.5 ENE 9 11 1032.4 - 0.0 - - 10 - - - -
21/05:30am 6.8 ENE 9 11 1032.5 - 0.0 - - 10 - - - -
21/05:00am 5.9 ENE 9 10 1032.4 - 0.0 - - 10 - - - -
21/04:30am 5.8 E 8 9 1032.2 - 0.0 - - 10 - - - -
21/04:00am 6.1 E 8 8 1032.2 - 0.0 - - - - - - -
21/03:30am 7.2 E 7 8 1032.2 - 0.0 - - - - - - -
21/03:00am 8.6 E 7 8 1032.3 - 0.0 - - - - - - -
21/02:30am 10.1 E 9 12 1032.4 - 0.0 - - - - - - -
21/02:00am 11.4 E 12 15 1032.4 - 0.0 - - - - - - -
21/01:30am 11.4 E 11 14 1032.3 - 0.0 - - 10 - - - -
21/01:00am 11.7 E 12 16 1032.0 - 0.0 - - 10 - - - -
21/12:30am 12.1 E 13 17 1032.2 - 0.0 - - 10 - - - -
21/12:00am 12.4 E 13 18 1032.5 - 0.0 - - 10 - - - -
 
Date/Time
CST
Temp

°C
Wind Pressure Rain
since 9am
mm
Weather Cloud Vis
km
Sea
Height
m
Swell
Dir
 
Speed
knots
Gust
knots
hPa Trend Height
m
Period
s
Dir
20/11:30pm 12.5 E 14 17 1032.7 - 0.0 - - - - - - -
20/11:00pm 12.6 E 13 17 1033.1 - 0.0 - - - - - - -
20/10:30pm 12.9 E 13 16 1033.0 - 0.0 - - - - - - -
20/10:00pm 13.4 E 13 18 1033.1 - 0.0 - - - - - - -
20/09:30pm 13.8 ESE 14 18 1032.9 - 0.0 - - - - - - -
20/09:00pm 14.1 ESE 14 19 1032.9 - 0.0 - - - - - - -
20/08:30pm 14.3 ESE 15 19 1032.8 - 0.0 - - - - - - -
20/08:00pm 14.3 ESE 14 17 1032.7 - 0.0 - - - - - - -
20/07:30pm 14.4 SE 13 17 1032.8 - 0.0 - - - - - - -
20/07:00pm 14.5 SE 13 18 1032.6 - 0.0 - - - - - - -
20/06:30pm 14.8 SE 14 19 1032.4 - 0.0 - - - - - - -
20/06:00pm 15.6 SE 15 20 1032.1 - 0.0 - - - - - - -
20/05:30pm 16.2 SE 18 22 1032.0 - 0.0 - - - - - - -
20/05:00pm 16.8 SE 17 22 1031.9 - 0.0 - - - - - - -
20/04:30pm 17.5 SE 16 20 1031.8 - 0.0 - - - - - - -
20/04:00pm 17.8 SE 15 19 1032.1 - 0.0 - - - - - - -
20/03:30pm 17.9 SE 14 19 1032.3 - 0.0 - - - - - - -
20/03:00pm 17.4 SE 13 19 1032.5 - 0.0 - - - - - - -
20/02:30pm 17.7 SE 14 20 1032.7 - 0.0 - - - - - - -
20/02:00pm 17.8 SE 12 18 1033.1 - 0.0 - - - - - - -
20/01:30pm 17.9 ESE 12 18 1033.7 - 0.0 - - - - - - -
20/01:00pm 17.2 ESE 12 18 1034.3 - 0.0 - - - - - - -
20/12:30pm 17.1 ESE 12 18 1035.0 - 0.0 - - - - - - -
20/12:00pm 17.1 E 14 20 1035.6 - 0.0 - - - - - - -
20/11:30am 17.2 E 13 19 1035.8 - 0.0 - - - - - - -
20/11:00am 16.4 E 15 19 1036.2 - 0.0 - - - - - - -
20/10:30am 15.8 ENE 16 20 1036.4 - 0.0 - - - - - - -
20/10:00am 15.4 E 15 19 1036.5 - 0.0 - - - - - - -
20/09:30am 14.6 ENE 17 21 1036.4 - 0.0 - - - - - - -
20/09:00am 13.9 ENE 14 19 1036.3 - 0.0 - - - - - - -
20/08:30am 12.3 ENE 14 18 1036.2 - 0.0 - - - - - - -
20/08:00am 10.2 ENE 9 12 1036.1 - 0.0 - - - - - - -
20/07:30am 8.2 E 8 10 1035.9 - 0.0 - - - - - - -
20/07:00am 7.8 E 8 9 1035.8 - 0.0 - - - - - - -
20/06:30am 8.6 E 9 11 1035.6 - 0.0 - - - - - - -
20/06:00am 8.7 E 9 11 1035.5 - 0.0 - - - - - - -
20/05:30am 8.3 E 8 9 1035.4 - 0.0 - - - - - - -
20/05:00am 8.8 E 8 10 1035.2 - 0.0 - - - - - - -
20/04:30am 9.3 E 9 11 1035.2 - 0.0 - - - - - - -
20/04:00am 9.5 E 9 12 1035.1 - 0.0 - - - - - - -
20/03:30am 9.7 E 9 10 1035.2 - 0.0 - - - - - - -
20/03:00am 10.5 E 9 12 1035.4 - 0.0 - - - - - - -
20/02:30am 10.7 E 10 12 1035.5 - 0.0 - - 10 - - - -
20/02:00am 11.1 E 9 12 1035.5 - 0.0 - - 10 - - - -
20/01:30am 11.1 E 9 11 1035.4 - 0.0 - - 10 - - - -
20/01:00am 11.2 E 10 12 1035.4 - 0.0 - - 10 - - - -
20/12:30am 10.8 E 9 10 1035.6 - 0.0 - - - - - - -
20/12:00am 11.2 E 9 11 1035.5 - 0.0 - - - - - - -
 
Date/Time
CST
Temp

°C
Wind Pressure Rain
since 9am
mm
Weather Cloud Vis
km
Sea
Height
m
Swell
Dir
 
Speed
knots
Gust
knots
hPa Trend Height
m
Period
s
Dir
19/11:30pm 11.0 E 8 9 1035.8 - 0.0 - - 10 - - - -
19/11:00pm 9.8 E 7 8 1035.7 - 0.0 - - - - - - -
19/10:30pm 10.2 E 7 8 1035.8 - 0.0 - - - - - - -
19/10:00pm 11.1 E 7 9 1035.6 - 0.0 - - - - - - -
19/09:30pm 12.0 ESE 7 9 1035.4 - 0.0 - - - - - - -
19/09:00pm 12.7 E 8 10 1035.2 - 0.0 - - - - - - -
19/08:30pm 13.6 ESE 10 13 1035.0 - 0.0 - - - - - - -
19/08:00pm 14.2 ESE 11 15 1034.6 - 0.0 - - - - - - -
19/07:30pm 14.5 SE 12 16 1034.2 - 0.0 - - - - - - -
19/07:00pm 14.5 SE 13 17 1033.7 - 0.0 - - - - - - -
19/06:30pm 15.0 SE 13 17 1033.5 - 0.0 - - - - - - -
19/06:00pm 16.1 SE 16 21 1033.1 - 0.0 - - - - - - -
19/05:30pm 16.6 SE 16 21 1033.0 - 0.0 - - - - - - -
19/05:00pm 17.1 SE 17 22 1032.7 - 0.0 - Partly cloudy - - - - -
19/04:30pm 17.9 SE 18 22 1032.6 - 0.0 - - - - - - -
19/04:00pm 17.7 SE 18 23 1032.6 - 0.0 - - - - - - -
19/03:30pm 18.2 SE 18 24 1032.6 - 0.0 - - - - - - -
19/03:00pm 18.5 SE 14 20 1032.7 - 0.0 - Mostly clear - - - - -
19/02:30pm 18.0 ESE 17 22 1032.7 - 0.0 - Partly cloudy - - - - -
19/02:00pm 17.9 SE 14 20 1032.8 - 0.0 - Partly cloudy - - - - -
19/01:30pm 18.8 SE 12 17 1033.0 - 0.0 - Partly cloudy - - - - -
19/01:00pm 18.0 SE 15 23 1033.4 - 0.0 - Partly cloudy - - - - -
19/12:30pm 18.2 ESE 14 23 1033.6 - 0.0 - Partly cloudy - - - - -
19/12:00pm 17.2 ESE 15 20 1033.8 - 0.0 - Cloudy - - - - -
19/11:30am 16.7 ESE 13 16 1033.9 - 0.0 - Partly cloudy - - - - -
19/11:00am 15.4 ESE 14 20 1034.1 - 0.0 - Partly cloudy - - - - -
19/10:30am 15.9 E 11 13 1033.9 - 0.0 - Partly cloudy - - - - -
19/10:00am 15.7 E 14 18 1033.8 - 0.0 - Cloudy - - - - -
19/09:30am 14.7 E 13 17 1033.6 - 0.0 - Partly cloudy - - - - -
19/09:00am 15.5 E 12 17 1033.0 - 1.0 - Mostly cloudy - - - - -
19/08:30am 14.7 ENE 10 13 1032.6 - 1.0 - Partly cloudy - - - - -
19/08:00am 14.6 ESE 8 10 1031.9 - 1.0 - Partly cloudy - - - - -
19/07:30am 13.8 SE 10 13 1031.6 - 1.0 - - - - - - -
19/07:00am 14.5 ESE 11 15 1031.1 - 1.0 - Partly cloudy - - - - -
19/06:30am 15.3 SE 13 17 1030.6 - 1.0 - Partly cloudy - - - - -
19/06:00am 15.0 ESE 11 14 1030.4 - 1.0 - Cloudy - - - - -
19/05:30am 15.0 SE 11 15 1030.2 - 1.0 - Partly cloudy - - - - -
19/05:00am 14.1 SE 7 9 1029.7 - 1.0 - Partly cloudy 10 - - - -
19/04:30am 12.2 SE 7 8 1029.5 - 1.0 - Partly cloudy 10 - - - -
19/04:00am 12.5 SSE 8 9 1029.2 - 1.0 - - - - - - -
19/03:30am 13.6 SSE 9 10 1029.2 - 1.0 - - - - - - -
19/03:00am 14.3 SSE 9 11 1029.2 - 1.0 - - - - - - -
19/02:30am 14.3 SSE 9 11 1029.3 - 1.0 - - - - - - -
19/02:00am 14.7 SSE 10 13 1029.4 - 1.0 - Partly cloudy - - - - -
19/01:30am 15.3 SSE 10 13 1029.2 - 1.0 - Partly cloudy - - - - -
19/01:00am 15.4 SSE 8 11 1028.9 - 1.0 - Partly cloudy - - - - -
19/12:30am 15.5 S 12 16 1028.9 - 1.0 - Cloudy 10 - - - -
19/12:00am 15.6 SSE 14 19 1028.7 - 1.0 Recent precip. Cloudy 10 - - - -
 
Date/Time
CST
Temp

°C
Wind Pressure Rain
since 9am
mm
Weather Cloud Vis
km
Sea
Height
m
Swell
Dir
 
Speed
knots
Gust
knots
hPa Trend Height
m
Period
s
Dir
18/11:30pm 15.2 S 10 13 1028.7 - 1.0 - Partly cloudy 10 - - - -
18/11:18pm 14.8 SSE 7 9 1028.6 - 1.0 - Partly cloudy 10 - - - -
18/11:00pm 14.6 SSE 9 14 1028.8 - 0.8 - Partly cloudy 4 - - - -
18/10:30pm 14.8 SSE 16 22 1028.7 - 0.8 - Partly cloudy 4 - - - -
18/10:16pm 15.3 SSE 15 20 1028.5 - 0.8 - Partly cloudy 7 - - - -
18/10:00pm 16.0 SSE 10 13 1028.2 - 0.6 - Partly cloudy 10 - - - -
18/09:42pm 15.8 SSE 10 16 1028.0 - 0.6 - Partly cloudy 7 - - - -
18/09:30pm 16.0 SSE 11 14 1027.9 - 0.6 - Partly cloudy 10 - - - -
18/09:00pm 16.0 SSE 14 17 1027.5 - 0.6 - Mostly cloudy 10 - - - -
18/08:30pm 16.0 SSE 11 16 1026.8 - 0.6 - Partly cloudy 10 - - - -
18/08:00pm 16.0 SSE 13 18 1026.4 - 0.6 - Partly cloudy 10 - - - -
18/07:56pm 15.9 SSE 14 19 1026.3 - 0.6 - Partly cloudy 10 - - - -
18/07:35pm 16.2 SSE 13 18 1026.0 - 0.6 - Partly cloudy 10 - - - -
18/07:30pm 16.1 SSE 12 18 1025.9 - 0.6 - Partly cloudy 7 - - - -
18/07:19pm 16.2 SSW 11 16 1025.8 - 0.6 - Partly cloudy 3 - - - -
18/07:05pm 16.9 SW 14 19 1025.6 - 0.0 - Partly cloudy 7 - - - -
18/07:00pm 17.2 SW 12 18 1025.4 - 0.0 - Partly cloudy 10 - - - -
18/06:30pm 17.5 SW 13 17 1024.9 - 0.0 - Cloudy 10 - - - -
18/06:00pm 18.4 SW 12 15 1024.5 - 0.0 - Cloudy 10 - - - -
18/05:30pm 18.7 SW 12 15 1024.2 - 0.0 - Partly cloudy - - - - -
18/05:00pm 19.5 WSW 11 15 1024.1 - 0.0 - - - - - - -
18/04:30pm 19.6 WSW 10 13 1023.9 - 0.0 - Partly cloudy - - - - -

Other Formats:

Comma delimited format used in spreadsheet applications
http://www.bom.gov.au/fwo/IDS60701/IDS60701.94651.axf

JavaScript Object Notation format (JSON) in row-major order
http://www.bom.gov.au/fwo/IDS60701/IDS60701.94651.json